createdAt,value
2018-08-22T00:00:01.607Z,10.20
2018-08-22T00:02:29.477Z,9.73
2018-08-22T00:04:57.370Z,9.63
2018-08-22T00:07:24.876Z,10.63
2018-08-22T00:09:52.407Z,11.17
2018-08-22T00:12:20.541Z,10.33
2018-08-22T00:14:48.522Z,12.17
2018-08-22T00:17:16.049Z,10.40
2018-08-22T00:19:43.554Z,10.23
2018-08-22T00:22:11.783Z,11.80
2018-08-22T00:24:39.301Z,10.53
2018-08-22T00:27:06.796Z,10.90
2018-08-22T00:29:34.584Z,9.73
2018-08-22T00:32:02.380Z,11.70
2018-08-22T00:34:29.908Z,11.83
2018-08-22T00:36:58.148Z,13.20
2018-08-22T00:39:25.649Z,11.20
2018-08-22T00:41:53.156Z,11.90
2018-08-22T00:44:20.687Z,12.20
2018-08-22T00:46:49.036Z,11.40
2018-08-22T00:49:16.562Z,11.00
2018-08-22T00:51:44.392Z,8.83
2018-08-22T00:54:11.895Z,12.20
2018-08-22T00:56:39.909Z,12.13
2018-08-22T00:59:07.757Z,13.13
2018-08-22T01:01:35.621Z,12.63
2018-08-22T01:04:04.365Z,10.33
2018-08-22T01:06:31.902Z,9.87
2018-08-22T01:08:59.420Z,11.37
2018-08-22T01:11:27.605Z,9.43
2018-08-22T01:13:55.872Z,13.20
2018-08-22T01:16:23.364Z,11.53
2018-08-22T01:18:50.877Z,10.60
2018-08-22T01:21:18.801Z,12.10
2018-08-22T01:23:46.671Z,15.10
2018-08-22T01:26:14.167Z,12.33
2018-08-22T01:28:42.328Z,11.77
2018-08-22T01:31:10.162Z,10.40
2018-08-22T01:33:37.657Z,10.10
2018-08-22T01:36:05.818Z,10.93
2018-08-22T01:38:33.797Z,9.80
2018-08-22T01:41:01.837Z,10.47
2018-08-22T01:43:29.372Z,9.43
2018-08-22T01:45:57.664Z,9.37
2018-08-22T01:48:26.416Z,10.87
2018-08-22T01:50:54.264Z,9.67
2018-08-22T01:53:22.152Z,10.13
2018-08-22T01:55:49.671Z,10.93
2018-08-22T01:58:17.208Z,8.77
2018-08-22T02:00:45.351Z,10.53
2018-08-22T02:03:12.901Z,10.53
2018-08-22T02:05:40.416Z,9.43
2018-08-22T02:08:07.996Z,11.73
2018-08-22T02:10:36.312Z,10.37
2018-08-22T02:13:04.519Z,10.43
2018-08-22T02:15:32.024Z,11.40
2018-08-22T02:17:59.829Z,12.70
2018-08-22T02:20:27.316Z,12.27
2018-08-22T02:22:55.444Z,10.80
2018-08-22T02:25:22.965Z,10.80
2018-08-22T02:27:50.479Z,9.93
2018-08-22T02:30:18.725Z,9.43
2018-08-22T02:32:47.172Z,10.77
2018-08-22T02:35:15.332Z,9.73
2018-08-22T02:37:43.312Z,12.20
2018-08-22T02:40:10.810Z,11.80
2018-08-22T02:42:38.339Z,11.50
2018-08-22T02:45:06.295Z,10.60
2018-08-22T02:47:34.876Z,10.37
2018-08-22T02:50:02.368Z,12.77
2018-08-22T02:52:30.368Z,11.30
2018-08-22T02:54:57.872Z,9.97
2018-08-22T02:57:25.752Z,10.00
2018-08-22T02:59:53.852Z,10.13
2018-08-22T03:02:21.716Z,9.90
2018-08-22T03:04:49.620Z,10.80
2018-08-22T03:07:17.460Z,9.63
2018-08-22T03:09:44.959Z,12.60
2018-08-22T03:12:12.884Z,11.80
2018-08-22T03:14:40.368Z,9.70
2018-08-22T03:17:08.200Z,11.30
2018-08-22T03:19:35.693Z,10.03
2018-08-22T03:22:03.193Z,10.43
2018-08-22T03:24:30.711Z,13.63
2018-08-22T03:26:58.208Z,10.53
2018-08-22T03:29:25.800Z,11.63
2018-08-22T03:31:53.696Z,10.77
2018-08-22T03:34:21.215Z,10.20
2018-08-22T03:36:50.624Z,9.17
2018-08-22T03:39:18.132Z,9.33
2018-08-22T03:41:45.656Z,10.17
2018-08-22T03:44:13.464Z,9.50
2018-08-22T03:46:41.597Z,10.80
2018-08-22T03:49:09.093Z,9.40
2018-08-22T03:51:37.311Z,10.27
2018-08-22T03:54:05.478Z,11.33
2018-08-22T03:56:32.976Z,8.97
2018-08-22T03:59:01.173Z,9.53
2018-08-22T04:01:29.162Z,9.50
2018-08-22T04:03:56.952Z,10.07
2018-08-22T04:06:24.924Z,11.77
2018-08-22T04:08:52.446Z,12.50
2018-08-22T04:11:20.492Z,9.80
2018-08-22T04:13:48.343Z,10.70
2018-08-22T04:16:15.834Z,12.53
2018-08-22T04:18:43.380Z,9.70
2018-08-22T04:21:10.913Z,8.67
2018-08-22T04:23:38.764Z,8.90
2018-08-22T04:26:06.256Z,8.73
2018-08-22T04:28:33.823Z,9.10
2018-08-22T04:31:02.250Z,9.40
2018-08-22T04:33:30.200Z,10.63
2018-08-22T04:35:57.704Z,10.40
2018-08-22T04:38:26.010Z,11.17
2018-08-22T04:40:53.972Z,9.30
2018-08-22T04:43:21.504Z,9.10
2018-08-22T04:45:49.806Z,11.83
2018-08-22T04:48:17.339Z,12.23
2018-08-22T04:50:45.392Z,9.37
2018-08-22T04:53:13.268Z,11.47
2018-08-22T04:55:40.784Z,11.30
2018-08-22T04:58:08.295Z,10.40
2018-08-22T05:00:36.176Z,9.23
2018-08-22T05:03:03.994Z,10.50
2018-08-22T05:05:31.797Z,9.70
2018-08-22T05:07:59.964Z,11.13
2018-08-22T05:10:27.842Z,13.10
2018-08-22T05:12:55.804Z,12.03
2018-08-22T05:15:23.432Z,12.33
2018-08-22T05:17:50.959Z,11.93
2018-08-22T05:20:18.487Z,11.20
2018-08-22T05:22:45.976Z,12.00
2018-08-22T05:25:14.081Z,9.83
2018-08-22T05:27:41.609Z,12.60
2018-08-22T05:30:09.738Z,11.30
2018-08-22T05:32:37.550Z,12.57
2018-08-22T05:35:05.249Z,11.20
2018-08-22T05:37:33.068Z,12.47
2018-08-22T05:40:00.957Z,12.13
2018-08-22T05:42:28.452Z,12.07
2018-08-22T05:44:56.629Z,11.73
2018-08-22T05:47:24.493Z,11.40
2018-08-22T05:49:52.780Z,12.70
2018-08-22T05:52:20.806Z,10.80
2018-08-22T05:54:48.298Z,12.50
2018-08-22T05:57:15.832Z,12.07
2018-08-22T05:59:43.356Z,12.60
2018-08-22T06:02:11.250Z,12.60
2018-08-22T06:04:39.411Z,11.50
2018-08-22T06:07:07.422Z,12.57
2018-08-22T06:09:35.333Z,11.50
2018-08-22T06:12:03.226Z,12.70
2018-08-22T06:14:30.739Z,12.10
2018-08-22T06:16:58.755Z,12.33
2018-08-22T06:19:26.293Z,11.43
2018-08-22T06:21:53.816Z,13.33
2018-08-22T06:24:21.339Z,12.90
2018-08-22T06:26:49.594Z,12.93
2018-08-22T06:29:17.098Z,11.50
2018-08-22T06:31:46.058Z,12.10
2018-08-22T06:34:13.560Z,12.13
2018-08-22T06:36:41.567Z,11.30
2018-08-22T06:39:10.135Z,11.13
2018-08-22T06:41:38.011Z,11.70
2018-08-22T06:44:06.322Z,11.60
2018-08-22T06:46:34.282Z,10.40
2018-08-22T06:49:02.603Z,10.90
2018-08-22T06:51:30.469Z,11.70
2018-08-22T06:53:58.002Z,12.00
2018-08-22T06:56:25.810Z,11.00
2018-08-22T06:58:54.410Z,11.20
2018-08-22T07:01:21.895Z,9.70
2018-08-22T07:03:49.411Z,10.77
2018-08-22T07:06:17.508Z,10.60
2018-08-22T07:08:45.363Z,10.40
2018-08-22T07:11:13.542Z,9.80
2018-08-22T07:13:41.265Z,10.00
2018-08-22T07:16:08.807Z,11.60
2018-08-22T07:18:36.459Z,8.93
2018-08-22T07:21:04.212Z,11.37
2018-08-22T07:23:32.200Z,11.30
2018-08-22T07:26:00.085Z,10.33
2018-08-22T07:31:20.867Z,10.03
2018-08-22T07:33:49.511Z,10.53
2018-08-22T07:36:17.423Z,10.07
2018-08-22T07:38:45.254Z,9.80
2018-08-22T07:41:12.823Z,9.17
2018-08-22T07:43:40.706Z,8.93
2018-08-22T07:46:08.816Z,9.87
2018-08-22T07:48:36.365Z,9.33
2018-08-22T07:51:04.494Z,9.60
2018-08-22T07:53:32.007Z,9.63
2018-08-22T07:55:59.872Z,8.17
2018-08-22T07:58:27.757Z,9.23
2018-08-22T08:00:55.263Z,8.03
2018-08-22T08:03:23.394Z,10.60
2018-08-22T08:05:50.923Z,8.70
2018-08-22T08:08:18.967Z,8.83
2018-08-22T08:10:47.439Z,8.07
2018-08-22T08:13:21.701Z,9.50
2018-08-22T08:15:49.205Z,8.50
2018-08-22T08:18:16.695Z,8.03
2018-08-22T08:20:44.299Z,7.67
2018-08-22T08:23:11.841Z,8.67
2018-08-22T08:25:39.442Z,9.30
2018-08-22T08:28:07.685Z,7.77
2018-08-22T08:30:35.841Z,8.40
2018-08-22T08:33:03.705Z,8.07
2018-08-22T08:35:31.226Z,10.30
2018-08-22T08:37:58.732Z,7.93
2018-08-22T08:40:26.256Z,9.13
2018-08-22T08:42:54.037Z,9.90
2018-08-22T08:45:21.549Z,8.23
2018-08-22T08:47:49.661Z,9.63
2018-08-22T08:50:17.248Z,7.67
2018-08-22T08:52:45.120Z,6.87
2018-08-22T08:55:13.097Z,7.00
2018-08-22T08:57:40.624Z,7.43
2018-08-22T09:00:08.129Z,6.97
2018-08-22T09:02:35.998Z,9.40
2018-08-22T09:05:03.823Z,9.80
2018-08-22T09:07:31.341Z,10.47
2018-08-22T09:09:58.872Z,9.90
2018-08-22T09:12:27.096Z,10.23
2018-08-22T09:17:22.792Z,9.30
2018-08-22T09:19:50.237Z,8.63
2018-08-22T09:22:17.720Z,8.97
2018-08-22T09:24:45.231Z,8.97
2018-08-22T09:27:12.727Z,8.40
2018-08-22T09:29:41.000Z,8.73
2018-08-22T09:32:08.940Z,9.10
2018-08-22T09:34:36.450Z,9.67
2018-08-22T09:37:04.277Z,9.10
2018-08-22T09:39:32.259Z,7.23
2018-08-22T09:41:59.761Z,9.70
2018-08-22T09:44:27.248Z,9.60
2018-08-22T09:46:55.149Z,9.90
2018-08-22T09:49:23.132Z,8.93
2018-08-22T09:51:51.594Z,9.60
2018-08-22T09:54:19.108Z,9.57
2018-08-22T09:56:47.063Z,10.00
2018-08-22T09:59:15.106Z,9.30
2018-08-22T10:01:44.218Z,9.67
2018-08-22T10:04:12.234Z,9.47
2018-08-22T10:06:46.452Z,9.67
2018-08-22T10:09:16.887Z,9.50
2018-08-22T10:11:44.815Z,9.60
2018-08-22T10:14:12.615Z,9.07
2018-08-22T10:16:40.130Z,9.10
2018-08-22T10:19:07.650Z,10.30
2018-08-22T10:21:35.146Z,9.80
2018-08-22T10:24:03.586Z,9.60
2018-08-22T10:26:31.862Z,9.67
2018-08-22T10:28:59.347Z,9.80
2018-08-22T10:31:27.546Z,11.20
2018-08-22T10:33:55.460Z,10.23
2018-08-22T10:36:22.984Z,9.70
2018-08-22T10:38:51.035Z,10.50
2018-08-22T10:41:18.879Z,10.80
2018-08-22T10:43:46.386Z,10.10
2018-08-22T10:46:14.231Z,10.83
2018-08-22T10:48:42.279Z,9.60
2018-08-22T10:51:10.210Z,10.40
2018-08-22T10:53:38.418Z,9.97
2018-08-22T10:56:06.291Z,9.17
2018-08-22T10:58:34.204Z,9.63
2018-08-22T11:01:01.827Z,10.33
2018-08-22T11:03:29.614Z,10.33
2018-08-22T11:05:57.133Z,9.93
2018-08-22T11:08:24.978Z,10.53
2018-08-22T11:10:52.543Z,11.30
2018-08-22T11:13:20.458Z,10.43
2018-08-22T11:15:48.000Z,10.80
2018-08-22T11:18:15.490Z,10.53
2018-08-22T11:20:44.215Z,10.60
2018-08-22T11:23:24.564Z,11.70
2018-08-22T11:26:05.007Z,10.27
2018-08-22T11:28:44.850Z,9.90
2018-08-22T11:31:25.387Z,10.30
2018-08-22T11:34:04.344Z,10.77
2018-08-22T11:36:31.946Z,11.63
2018-08-22T11:38:59.453Z,10.60
2018-08-22T11:41:27.909Z,10.90
2018-08-22T11:43:55.410Z,11.20
2018-08-22T11:46:23.247Z,10.43
2018-08-22T11:48:50.739Z,11.40
2018-08-22T11:51:19.345Z,10.57
2018-08-22T11:53:47.447Z,11.23
2018-08-22T11:56:15.842Z,10.53
2018-08-22T11:58:44.138Z,11.70
2018-08-22T12:01:11.688Z,10.03
2018-08-22T12:03:39.209Z,10.40
2018-08-22T12:06:07.078Z,10.30
2018-08-22T12:08:34.570Z,8.37
2018-08-22T12:11:02.634Z,10.80
2018-08-22T12:13:30.678Z,11.13
2018-08-22T12:15:58.281Z,10.10
2018-08-22T12:18:25.786Z,10.93
2018-08-22T12:20:53.303Z,9.27
2018-08-22T12:23:21.238Z,9.97
2018-08-22T12:25:48.835Z,10.87
2018-08-22T12:28:16.622Z,10.53
2018-08-22T12:30:44.831Z,10.43
2018-08-22T12:33:12.739Z,10.17
2018-08-22T12:35:40.219Z,10.10
2018-08-22T12:38:07.711Z,9.50
2018-08-22T12:40:35.579Z,9.50
2018-08-22T12:43:04.237Z,10.17
2018-08-22T12:45:31.983Z,9.47
2018-08-22T12:48:00.235Z,10.17
2018-08-22T12:50:27.975Z,9.53
2018-08-22T12:52:55.859Z,9.97
2018-08-22T12:55:23.978Z,9.63
2018-08-22T12:57:51.847Z,10.50
2018-08-22T13:00:19.352Z,10.20
2018-08-22T13:02:47.257Z,10.53
2018-08-22T13:05:14.754Z,10.23
2018-08-22T13:07:42.275Z,9.90
2018-08-22T13:10:09.822Z,10.30
2018-08-22T13:12:38.106Z,10.30
2018-08-22T13:15:06.550Z,9.40
2018-08-22T13:17:34.503Z,9.53
2018-08-22T13:20:02.389Z,9.17
2018-08-22T13:22:30.056Z,9.40
2018-08-22T13:24:57.713Z,10.10
2018-08-22T13:27:25.239Z,8.90
2018-08-22T13:29:53.421Z,9.97
2018-08-22T13:32:21.789Z,8.60
2018-08-22T13:34:49.626Z,9.30
2018-08-22T13:37:17.119Z,9.73
2018-08-22T13:39:44.775Z,9.07
2018-08-22T13:42:12.715Z,8.90
2018-08-22T13:44:40.607Z,8.70
2018-08-22T13:47:09.122Z,8.87
2018-08-22T13:49:37.118Z,8.90
2018-08-22T13:52:05.666Z,8.63
2018-08-22T13:54:33.594Z,9.13
2018-08-22T13:57:01.688Z,8.90
2018-08-22T13:59:29.191Z,7.97
2018-08-22T14:01:56.715Z,8.13
2018-08-22T14:04:25.267Z,8.57
2018-08-22T14:06:52.763Z,9.17
2018-08-22T14:09:20.259Z,8.93
2018-08-22T14:11:48.466Z,8.10
2018-08-22T14:14:15.957Z,9.00
2018-08-22T14:16:44.214Z,7.53
2018-08-22T14:19:11.726Z,9.27
2018-08-22T14:21:39.226Z,8.30
2018-08-22T14:24:07.163Z,7.37
2018-08-22T14:26:34.676Z,8.00
2018-08-22T14:29:02.579Z,9.07
2018-08-22T14:31:30.429Z,8.10
2018-08-22T14:33:58.272Z,8.30
2018-08-22T14:36:25.792Z,8.03
2018-08-22T14:38:53.751Z,8.33
2018-08-22T14:41:21.248Z,8.10
2018-08-22T14:43:48.755Z,7.17
2018-08-22T14:46:17.238Z,8.33
2018-08-22T14:48:44.739Z,8.53
2018-08-22T14:51:12.641Z,8.43
2018-08-22T14:53:40.876Z,8.37
2018-08-22T14:56:08.872Z,8.30
2018-08-22T14:58:36.844Z,8.20
2018-08-22T15:01:04.555Z,8.10
2018-08-22T15:03:32.208Z,8.63
2018-08-22T15:05:59.640Z,8.57
2018-08-22T15:08:27.165Z,8.40
2018-08-22T15:10:54.759Z,8.80
2018-08-22T15:13:22.634Z,8.10
2018-08-22T15:15:50.693Z,7.57
2018-08-22T15:18:18.343Z,8.80
2018-08-22T15:20:46.420Z,9.00
2018-08-22T15:23:13.936Z,6.97
2018-08-22T15:25:41.776Z,7.60
2018-08-22T15:28:09.308Z,8.03
2018-08-22T15:30:38.428Z,7.43
2018-08-22T15:33:05.976Z,7.47
2018-08-22T15:35:33.485Z,7.47
2018-08-22T15:38:01.376Z,8.40
2018-08-22T15:40:28.945Z,7.67
2018-08-22T15:42:56.856Z,6.60
2018-08-22T15:45:25.013Z,7.60
2018-08-22T15:47:52.904Z,6.80
2018-08-22T15:50:20.432Z,7.53
2018-08-22T15:52:48.440Z,6.80
2018-08-22T15:55:17.730Z,7.70
2018-08-22T15:57:56.747Z,7.27
2018-08-22T16:00:44.427Z,6.83
2018-08-22T16:03:12.550Z,8.63
2018-08-22T16:05:41.765Z,9.00
2018-08-22T16:08:10.100Z,7.87
2018-08-22T16:10:37.636Z,7.33
2018-08-22T16:13:17.257Z,7.30
2018-08-22T16:15:45.716Z,7.50
2018-08-22T16:18:13.688Z,9.10
2018-08-22T16:20:50.658Z,9.13
2018-08-22T16:23:18.607Z,8.67
2018-08-22T16:25:48.794Z,8.43
2018-08-22T16:28:16.748Z,8.60
2018-08-22T16:30:56.691Z,8.40
2018-08-22T16:33:12.333Z,7.70
2018-08-22T16:35:40.245Z,8.43
2018-08-22T16:38:10.711Z,9.50
2018-08-22T16:40:40.138Z,9.40
2018-08-22T16:43:08.062Z,9.40
2018-08-22T16:45:44.970Z,8.57
2018-08-22T16:48:16.720Z,7.80
2018-08-22T16:50:45.151Z,6.90
2018-08-22T16:53:13.080Z,6.90
2018-08-22T16:55:41.087Z,6.73
2018-08-22T16:58:08.607Z,6.10
2018-08-22T17:00:44.242Z,6.30
2018-08-22T17:03:12.861Z,6.20
2018-08-22T17:05:41.043Z,7.30
2018-08-22T17:08:09.110Z,8.43
2018-08-22T17:10:48.575Z,9.93
2018-08-22T17:13:23.808Z,9.20
2018-08-22T17:15:51.390Z,7.50
2018-08-22T17:18:18.885Z,6.37
2018-08-22T17:20:47.208Z,5.73
2018-08-22T17:23:14.781Z,7.57
2018-08-22T17:25:42.390Z,8.50
2018-08-22T17:28:09.949Z,7.80
2018-08-22T17:30:41.480Z,8.90
2018-08-22T17:33:10.841Z,9.10
2018-08-22T17:35:42.431Z,10.40
2018-08-22T17:38:11.422Z,8.23
2018-08-22T17:40:40.685Z,7.93
2018-08-22T17:43:08.492Z,6.70
2018-08-22T17:45:38.581Z,7.90
2018-08-22T17:48:07.031Z,8.10
2018-08-22T17:50:35.253Z,9.30
2018-08-22T17:53:06.981Z,9.37
2018-08-22T17:55:34.829Z,10.20
2018-08-22T17:58:02.387Z,11.10
2018-08-22T18:00:31.660Z,10.13
2018-08-22T18:02:59.173Z,9.63
2018-08-22T18:05:26.925Z,8.80
2018-08-22T18:07:54.808Z,9.40
2018-08-22T18:10:23.152Z,9.50
2018-08-22T18:12:50.991Z,7.77
2018-08-22T18:15:18.482Z,7.83
2018-08-22T18:17:48.001Z,7.70
2018-08-22T18:20:16.088Z,8.57
2018-08-22T18:22:43.861Z,10.70
2018-08-22T18:25:11.497Z,9.80
2018-08-22T18:27:39.112Z,11.07
2018-08-22T18:30:10.103Z,10.47
2018-08-22T18:32:38.148Z,11.20
2018-08-22T18:35:10.812Z,8.87
2018-08-22T18:37:39.647Z,7.50
2018-08-22T18:40:14.885Z,8.10
2018-08-22T18:42:42.642Z,9.00
2018-08-22T18:45:10.195Z,9.27
2018-08-22T18:47:38.088Z,11.17
2018-08-22T18:50:06.354Z,10.10
2018-08-22T18:52:34.339Z,10.13
2018-08-22T18:55:02.369Z,9.13
2018-08-22T18:57:29.943Z,9.17
2018-08-22T18:59:57.645Z,8.00
2018-08-22T19:02:25.552Z,7.80
2018-08-22T19:04:53.703Z,7.43
2018-08-22T19:07:21.629Z,8.33
2018-08-22T19:09:49.725Z,7.53
2018-08-22T19:12:18.373Z,6.97
2018-08-22T19:14:47.259Z,8.07
2018-08-22T19:17:17.523Z,9.97
2018-08-22T19:19:46.418Z,8.43
2018-08-22T19:22:15.786Z,7.63
2018-08-22T19:24:59.418Z,7.90
2018-08-22T19:27:27.451Z,8.93
2018-08-22T19:29:55.062Z,11.60
2018-08-22T19:32:22.915Z,11.50
2018-08-22T19:34:55.386Z,12.20
2018-08-22T19:37:24.271Z,11.07
2018-08-22T19:40:00.709Z,10.40
2018-08-22T19:42:30.730Z,9.30
2018-08-22T19:44:58.626Z,9.20
2018-08-22T19:47:26.552Z,9.00
2018-08-22T19:49:54.859Z,9.23
2018-08-22T19:52:23.282Z,10.10
2018-08-22T19:54:50.831Z,10.97
2018-08-22T19:57:23.375Z,10.83
2018-08-22T19:59:51.882Z,10.20
2018-08-22T20:02:19.859Z,9.20
2018-08-22T20:04:47.550Z,11.27
2018-08-22T20:07:15.389Z,9.80
2018-08-22T20:09:44.243Z,11.10
2018-08-22T20:12:13.050Z,10.93
2018-08-22T20:14:50.834Z,9.97
2018-08-22T20:17:23.925Z,11.53
2018-08-22T20:19:51.701Z,10.43
2018-08-22T20:22:25.224Z,9.70
2018-08-22T20:24:55.895Z,12.47
2018-08-22T20:27:24.359Z,12.90
2018-08-22T20:29:53.827Z,11.80
2018-08-22T20:32:28.173Z,12.47
2018-08-22T20:34:56.506Z,14.23
2018-08-22T20:37:23.997Z,12.77
2018-08-22T20:39:57.207Z,12.10
2018-08-22T20:42:25.404Z,14.40
2018-08-22T20:44:53.399Z,13.70
2018-08-22T20:47:21.338Z,10.70
2018-08-22T20:49:49.445Z,10.00
2018-08-22T20:52:17.448Z,10.30
2018-08-22T20:54:53.463Z,13.10
2018-08-22T20:57:22.250Z,13.77
2018-08-22T20:59:50.280Z,16.60
2018-08-22T21:02:18.758Z,13.83
2018-08-22T21:04:46.835Z,11.27
2018-08-22T21:07:20.576Z,9.57
2018-08-22T21:09:48.202Z,10.23
2018-08-22T21:12:16.219Z,10.20
2018-08-22T21:14:43.762Z,11.10
2018-08-22T21:17:11.339Z,12.40
2018-08-22T21:19:38.950Z,10.27
2018-08-22T21:22:20.365Z,10.00
2018-08-22T21:24:47.926Z,10.40
2018-08-22T21:27:15.426Z,11.83
2018-08-22T21:29:43.896Z,14.87
2018-08-22T21:32:11.790Z,14.20
2018-08-22T21:34:39.396Z,13.97
2018-08-22T21:37:18.336Z,11.03
2018-08-22T21:39:45.879Z,11.53
2018-08-22T21:42:19.636Z,11.43
2018-08-22T21:44:47.709Z,10.63
2018-08-22T21:47:16.253Z,11.47
2018-08-22T21:49:44.581Z,12.40
2018-08-22T21:52:12.455Z,13.57
2018-08-22T21:54:40.002Z,13.70
2018-08-22T21:57:07.514Z,11.20
2018-08-22T21:59:35.563Z,12.50
2018-08-22T22:02:07.632Z,11.90
2018-08-22T22:04:36.480Z,10.53
2018-08-22T22:07:05.536Z,11.40
2018-08-22T22:09:35.329Z,11.33
2018-08-22T22:12:03.684Z,12.77
2018-08-22T22:14:32.231Z,12.70
2018-08-22T22:17:00.855Z,11.27
2018-08-22T22:19:30.611Z,9.90
2018-08-22T22:21:58.526Z,11.40
2018-08-22T22:24:26.055Z,10.73
2018-08-22T22:26:53.572Z,9.93
2018-08-22T22:29:24.201Z,8.57
2018-08-22T22:31:52.414Z,9.73
2018-08-22T22:34:20.544Z,10.10
2018-08-22T22:36:48.048Z,12.60
2018-08-22T22:39:32.812Z,10.30
2018-08-22T22:42:01.710Z,9.10
2018-08-22T22:44:29.216Z,8.03
2018-08-22T22:46:57.444Z,8.40
2018-08-22T22:49:25.324Z,8.90
2018-08-22T22:51:54.018Z,10.27
2018-08-22T22:54:33.621Z,11.00
2018-08-22T22:57:01.448Z,12.63
2018-08-22T22:59:29.307Z,11.13
2018-08-22T23:01:57.224Z,10.23
2018-08-22T23:04:24.960Z,8.80
2018-08-22T23:07:01.470Z,8.67
2018-08-22T23:09:34.301Z,7.50
2018-08-22T23:12:03.124Z,7.77
2018-08-22T23:14:30.652Z,8.80
2018-08-22T23:16:58.544Z,10.50
2018-08-22T23:19:26.054Z,9.20
2018-08-22T23:21:53.550Z,8.60
2018-08-22T23:24:21.158Z,8.20
2018-08-22T23:26:48.983Z,8.53
2018-08-22T23:29:16.830Z,8.57
2018-08-22T23:31:44.828Z,9.27
2018-08-22T23:34:12.998Z,8.63
2018-08-22T23:36:40.599Z,8.63
2018-08-22T23:39:08.263Z,7.53
2018-08-22T23:41:35.788Z,9.47
2018-08-22T23:44:03.305Z,7.83
2018-08-22T23:46:31.222Z,9.23
2018-08-22T23:49:00.145Z,9.20
2018-08-22T23:51:27.968Z,8.10
2018-08-22T23:53:57.759Z,8.93
2018-08-22T23:56:29.419Z,8.50
2018-08-22T23:58:57.743Z,8.53
